Time;durP1;ratioP1;P1;durP2;ratioP2;P2;SDS_P1;SDS_P2;PMS_P1;PMS_P2;Temp;Humidity;BMP_temperature;BMP_pressure;BME280_temperature;BME280_humidity;BME280_pressure;Samples;Min_cycle;Max_cycle;Signal;HPM_P1;HPM_P2
2022/06/04 00:02:12;;;;;;;7.75;5.05;;;;;;;19.72;95.00;100648.03;31565781;28;20407;-74
2022/06/04 00:17:15;;;;;;;9.25;5.50;;;;;;;19.64;95.07;100652.34;31574510;28;20051;-75
2022/06/04 00:32:17;;;;;;;8.38;5.50;;;;;;;19.46;97.73;100635.88;31542567;28;20052;-75
2022/06/04 00:47:27;;;;;;;12.83;6.73;;;;;;;19.22;99.35;100622.09;31590548;28;20135;-75
2022/06/04 01:02:41;;;;;;;9.90;7.15;;;;;;;18.97;100.00;100626.00;31542995;28;20051;-74
2022/06/04 01:17:43;;;;;;;;;;;;;;;18.72;100.00;100625.13;31572272;28;20064;-75
2022/06/04 01:32:55;;;;;;;10.90;7.55;;;;;;;18.65;100.00;100622.72;31564244;28;20398;-75
2022/06/04 01:48:01;;;;;;;10.20;7.50;;;;;;;18.64;100.00;100612.94;31581956;28;20047;-74
2022/06/04 02:03:09;;;;;;;11.05;6.90;;;;;;;18.72;100.00;100619.63;31547885;28;20044;-75
2022/06/04 02:18:12;;;;;;;11.75;7.43;;;;;;;18.71;100.00;100618.09;31551127;28;20048;-75
2022/06/04 02:33:35;;;;;;;10.50;6.93;;;;;;;18.81;100.00;100624.38;31586225;28;20056;-75
2022/06/04 02:49:13;;;;;;;9.32;6.38;;;;;;;18.95;98.20;100614.69;31585738;28;20043;-75
2022/06/04 03:04:15;;;;;;;8.88;6.05;;;;;;;19.12;96.38;100596.59;31564853;28;20064;-75
2022/06/04 03:19:17;;;;;;;9.73;6.35;;;;;;;19.26;94.82;100590.41;31553949;28;20056;-75
2022/06/04 03:34:19;;;;;;;13.95;6.55;;;;;;;19.47;93.14;100585.09;31566367;28;20536;-75
2022/06/04 03:49:21;;;;;;;9.60;6.97;;;;;;;19.73;91.11;100605.47;31602446;28;20048;-75
2022/06/04 04:04:23;;;;;;;8.57;6.32;;;;;;;20.21;88.95;100591.66;31559961;28;20063;-75
2022/06/04 04:19:29;;;;;;;10.75;6.10;;;;;;;20.37;87.29;100591.22;31564379;28;20067;-75
2022/06/04 04:34:32;;;;;;;8.85;6.65;;;;;;;20.73;86.05;100582.59;31576531;28;20048;-75
2022/06/04 04:49:34;;;;;;;9.38;5.82;;;;;;;21.35;83.82;100573.25;31577431;28;20048;-76
2022/06/04 05:04:37;;;;;;;7.87;6.00;;;;;;;21.73;80.89;100568.72;31542677;28;20055;-76
2022/06/04 05:19:39;;;;;;;6.53;5.38;;;;;;;22.40;79.47;100561.19;31574769;28;20056;-76
2022/06/04 05:34:41;;;;;;;8.73;5.77;;;;;;;22.87;77.11;100557.06;31578781;28;20048;-75
2022/06/04 05:49:43;;;;;;;8.67;5.07;;;;;;;23.42;75.47;100553.88;31560386;28;20993;-76
2022/06/04 06:04:45;;;;;;;8.13;5.80;;;;;;;24.00;73.29;100548.06;31561915;28;20058;-75
2022/06/04 06:19:48;;;;;;;5.77;4.50;;;;;;;24.49;71.50;100543.88;31593565;28;20373;-76
2022/06/04 06:34:51;;;;;;;9.65;5.45;;;;;;;24.92;70.05;100543.59;31582512;28;20048;-76
2022/06/04 06:49:53;;;;;;;8.32;4.63;;;;;;;25.44;67.82;100541.72;31579308;28;20048;-76
2022/06/04 07:04:55;;;;;;;5.95;5.07;;;;;;;25.76;66.81;100539.34;31575792;28;20057;-75
2022/06/04 07:19:56;;;;;;;;;;;;;;;26.41;64.27;100519.22;31581478;28;20047;-76
2022/06/04 07:34:58;;;;;;;5.22;4.40;;;;;;;26.56;64.18;100529.97;31585945;28;19956;-76
2022/06/04 07:50:01;;;;;;;4.50;3.75;;;;;;;27.19;61.48;100534.44;31563911;28;20060;-74
2022/06/04 08:05:03;;;;;;;6.82;3.97;;;;;;;27.69;58.75;100538.69;31579822;28;20045;-76
2022/06/04 08:20:06;;;;;;;6.70;3.78;;;;;;;27.97;58.01;100525.13;31567621;28;20059;-77
2022/06/04 08:35:08;;;;;;;5.97;4.32;;;;;;;28.60;55.41;100532.00;31543000;28;20048;-76
2022/06/04 08:50:10;;;;;;;6.20;3.70;;;;;;;28.73;54.54;100523.69;31537021;28;20051;-73
2022/06/04 09:05:25;;;;;;;7.88;3.97;;;;;;;29.12;53.36;100530.59;31563719;28;20040;-78
2022/06/04 09:20:34;;;;;;;4.63;3.58;;;;;;;29.12;51.92;100525.75;31589325;28;20436;-76
2022/06/04 09:35:40;;;;;;;7.72;5.43;;;;;;;30.16;49.87;100500.19;31559174;28;20080;-77
2022/06/04 09:51:11;;;;;;;4.00;2.72;;;;;;;30.76;46.07;100494.34;31553631;28;20618;-76
2022/06/04 10:06:24;;;;;;;3.72;2.88;;;;;;;30.95;45.66;100470.91;31581477;28;20060;-75
2022/06/04 10:21:30;;;;;;;4.15;2.92;;;;;;;30.16;47.23;100466.59;31521880;28;20068;-77
2022/06/04 10:36:47;;;;;;;7.47;4.10;;;;;;;31.31;43.51;100460.47;31531978;28;20052;-77
2022/06/04 10:52:00;;;;;;;5.32;3.00;;;;;;;31.23;43.92;100445.66;31539771;28;20047;-78
2022/06/04 11:07:15;;;;;;;3.70;2.80;;;;;;;32.23;39.64;100435.44;31586374;28;20059;-77
2022/06/04 11:22:32;;;;;;;4.25;3.15;;;;;;;30.93;41.51;100434.31;31578849;28;20059;-79
2022/06/04 11:37:55;;;;;;;8.18;3.08;;;;;;;29.65;44.24;100421.50;31595635;28;20054;-75
2022/06/04 11:53:16;;;;;;;3.17;2.67;;;;;;;29.02;45.20;100389.81;31588358;28;20044;-76
2022/06/04 12:08:23;;;;;;;4.90;3.40;;;;;;;28.55;45.98;100379.28;31559874;28;20049;-77
2022/06/04 12:38:59;;;;;;;5.30;3.10;;;;;;;28.27;46.89;100356.72;31594172;28;20054;-77
2022/06/04 12:54:17;;;;;;;6.00;3.85;;;;;;;27.99;47.43;100330.03;31613301;28;20040;-78
2022/06/04 13:09:37;;;;;;;4.03;3.00;;;;;;;27.95;46.85;100321.22;31561862;28;20052;-78
2022/06/04 13:24:40;;;;;;;7.53;2.88;;;;;;;27.99;47.62;100302.13;31555602;28;20131;-76
2022/06/04 13:39:47;;;;;;;4.65;2.83;;;;;;;27.88;47.36;100301.56;31541153;28;20044;-76
2022/06/04 13:54:59;;;;;;;3.55;3.03;;;;;;;27.72;47.25;100297.78;31511474;28;20050;-77
2022/06/04 14:10:03;;;;;;;4.57;3.05;;;;;;;27.60;47.43;100283.31;31563894;28;20143;-77
2022/06/04 14:25:44;;;;;;;4.15;2.97;;;;;;;27.43;47.81;100269.59;31573350;28;20051;-77
2022/06/04 14:40:58;;;;;;;2.92;2.45;;;;;;;27.26;47.54;100255.19;31592859;28;20044;-77
2022/06/04 14:56:44;;;;;;;10.57;3.15;;;;;;;27.11;48.15;100244.53;31595669;28;20051;-78
2022/06/04 15:12:13;;;;;;;3.42;2.65;;;;;;;26.83;48.37;100236.53;31594650;28;20062;-78
2022/06/04 15:27:30;;;;;;;3.47;2.67;;;;;;;26.73;48.78;100232.63;31597093;28;20059;-77
2022/06/04 15:43:00;;;;;;;3.00;2.70;;;;;;;26.63;48.96;100234.31;31569967;28;20131;-76
2022/06/04 15:58:18;;;;;;;5.63;2.97;;;;;;;26.47;50.46;100244.34;31583539;28;20050;-76
2022/06/04 16:13:55;;;;;;;6.90;2.80;;;;;;;26.17;50.21;100233.31;31539865;28;20094;-77
2022/06/04 16:28:59;;;;;;;5.28;2.90;;;;;;;25.78;51.32;100235.75;31571487;28;20517;-76
2022/06/04 16:44:17;;;;;;;4.68;3.15;;;;;;;25.46;52.84;100252.94;31601318;28;20071;-79
2022/06/04 16:59:19;;;;;;;6.40;3.20;;;;;;;25.25;52.87;100251.88;31579907;28;20047;-78
2022/06/04 17:14:59;;;;;;;6.35;3.17;;;;;;;25.00;54.23;100247.50;31590886;28;20522;-77
2022/06/04 17:30:10;;;;;;;7.28;3.53;;;;;;;24.70;55.17;100250.91;31582488;28;20062;-78
2022/06/04 17:45:12;;;;;;;5.32;3.55;;;;;;;24.37;55.08;100259.38;31607478;28;20131;-78
2022/06/04 18:00:16;;;;;;;6.27;3.67;;;;;;;24.06;55.95;100268.78;31591172;28;20058;-77
2022/06/04 18:15:18;;;;;;;5.32;3.92;;;;;;;23.82;57.24;100271.34;31604187;28;20613;-78
2022/06/04 18:30:21;;;;;;;7.60;4.03;;;;;;;23.60;58.29;100272.09;31567670;28;20090;-75
2022/06/04 19:00:44;;;;;;;13.32;6.22;;;;;;;22.98;61.85;100290.63;31583061;28;20139;-80
2022/06/04 19:15:47;;;;;;;7.87;4.37;;;;;;;22.72;63.21;100280.44;31553162;28;20072;-77
2022/06/04 19:30:49;;;;;;;6.27;3.90;;;;;;;22.54;64.65;100258.75;31534604;28;20052;-76
2022/06/04 19:45:58;;;;;;;9.18;5.13;;;;;;;22.41;65.31;100283.34;31574698;28;20040;-77
2022/06/04 20:01:00;;;;;;;5.13;3.85;;;;;;;22.21;65.94;100269.63;31581093;28;20458;-76
2022/06/04 20:16:02;;;;;;;6.30;4.20;;;;;;;22.11;65.95;100275.38;31561661;28;20055;-76
2022/06/04 20:31:05;;;;;;;5.27;4.07;;;;;;;22.03;66.17;100277.09;31565144;28;20051;-76
2022/06/04 20:46:11;;;;;;;6.00;4.10;;;;;;;21.84;67.37;100264.88;31569493;28;20044;-75
2022/06/04 21:01:13;;;;;;;6.93;3.72;;;;;;;21.63;67.29;100238.59;31545803;28;20130;-75
2022/06/04 21:16:17;;;;;;;7.03;3.80;;;;;;;21.48;66.93;100252.56;31576202;28;20067;-76
2022/06/04 21:31:20;;;;;;;;;;;;;;;21.38;69.05;100262.25;31550772;28;20060;-75
2022/06/04 21:46:23;;;;;;;9.10;5.45;;;;;;;21.18;68.89;100265.81;31551084;28;19928;-75
2022/06/04 22:01:25;;;;;;;5.80;3.83;;;;;;;21.07;69.02;100257.41;31552720;28;20056;-75
2022/06/04 22:16:30;;;;;;;6.20;3.93;;;;;;;20.91;69.09;100252.50;31564282;28;20075;-75
2022/06/04 22:31:32;;;;;;;5.40;3.60;;;;;;;20.84;68.93;100225.31;31551157;28;20048;-75
2022/06/04 22:46:34;;;;;;;5.05;3.03;;;;;;;20.83;68.68;100224.56;31562284;28;20044;-75
2022/06/04 23:01:39;;;;;;;5.35;3.13;;;;;;;20.68;68.72;100216.38;31571507;28;20140;-75
2022/06/04 23:32:02;;;;;;;4.18;3.42;;;;;;;20.49;67.00;100192.34;31564890;28;20058;-75
2022/06/04 23:47:05;;;;;;;4.82;2.70;;;;;;;20.41;66.59;100194.75;31574646;28;20047;-74
